createdAt,value
2023-05-24T00:00:31.902Z,18.75
2023-05-24T00:03:21.856Z,18.77
2023-05-24T00:05:49.393Z,18.69
2023-05-24T00:08:17.050Z,18.74
2023-05-24T00:10:44.510Z,18.73
2023-05-24T00:13:12.321Z,18.78
2023-05-24T00:15:39.643Z,18.83
2023-05-24T00:18:07.353Z,18.69
2023-05-24T00:20:34.853Z,18.56
2023-05-24T00:23:02.526Z,18.62
2023-05-24T00:25:29.842Z,18.72
2023-05-24T00:27:57.387Z,18.66
2023-05-24T00:30:24.703Z,18.77
2023-05-24T00:32:52.450Z,18.79
2023-05-24T00:35:19.859Z,18.79
2023-05-24T00:37:48.246Z,18.80
2023-05-24T00:40:15.555Z,18.79
2023-05-24T00:42:43.098Z,18.80
2023-05-24T00:45:11.072Z,18.75
2023-05-24T00:47:38.911Z,18.75
2023-05-24T00:50:09.970Z,18.73
2023-05-24T00:52:37.939Z,18.76
2023-05-24T00:55:07.348Z,18.77
2023-05-24T00:57:36.974Z,18.77
2023-05-24T01:00:07.862Z,18.80
2023-05-24T01:02:35.700Z,18.78
2023-05-24T01:05:04.152Z,18.77
2023-05-24T01:07:59.475Z,18.75
2023-05-24T01:10:47.822Z,18.69
2023-05-24T01:13:47.863Z,18.75
2023-05-24T01:16:26.337Z,18.83
2023-05-24T01:19:00.748Z,18.85
2023-05-24T01:22:20.665Z,18.77
2023-05-24T01:25:13.168Z,18.78
2023-05-24T01:27:43.366Z,18.76
2023-05-24T01:30:12.265Z,18.78
2023-05-24T01:32:40.000Z,18.74
2023-05-24T01:35:08.137Z,18.69
2023-05-24T01:37:35.601Z,18.77
2023-05-24T01:40:04.634Z,18.72
2023-05-24T01:42:49.081Z,18.64
2023-05-24T01:45:42.258Z,18.56
2023-05-24T01:48:33.899Z,18.63
2023-05-24T01:51:07.932Z,18.61
2023-05-24T01:53:46.605Z,18.56
2023-05-24T01:56:19.685Z,18.52
2023-05-24T01:58:52.839Z,18.60
2023-05-24T02:01:20.983Z,18.59
2023-05-24T02:03:48.483Z,18.63
2023-05-24T02:06:16.075Z,18.63
2023-05-24T02:08:43.436Z,18.65
2023-05-24T02:11:11.069Z,18.67
2023-05-24T02:13:38.329Z,18.61
2023-05-24T02:16:06.212Z,18.57
2023-05-24T02:18:34.977Z,18.54
2023-05-24T02:21:03.334Z,18.60
2023-05-24T02:23:30.805Z,18.67
2023-05-24T02:25:58.404Z,18.61
2023-05-24T02:28:25.732Z,18.56
2023-05-24T02:30:53.360Z,18.66
2023-05-24T02:33:21.240Z,18.61
2023-05-24T02:35:49.001Z,18.61
2023-05-24T02:38:16.400Z,18.33
2023-05-24T02:40:44.204Z,18.56
2023-05-24T02:43:11.688Z,18.44
2023-05-24T02:45:39.385Z,18.50
2023-05-24T02:48:06.825Z,18.50
2023-05-24T02:50:34.743Z,18.49
2023-05-24T02:53:02.005Z,18.44
2023-05-24T02:55:29.645Z,18.40
2023-05-24T02:57:56.995Z,18.39
2023-05-24T03:00:24.661Z,18.43
2023-05-24T03:02:52.708Z,18.42
2023-05-24T03:05:20.569Z,18.41
2023-05-24T03:07:47.875Z,18.40
2023-05-24T03:10:16.074Z,18.29
2023-05-24T03:12:43.429Z,18.35
2023-05-24T03:15:11.827Z,18.38
2023-05-24T03:17:39.154Z,18.39
2023-05-24T03:20:08.068Z,18.41
2023-05-24T03:22:35.400Z,18.35
2023-05-24T03:25:03.019Z,18.35
2023-05-24T03:27:30.416Z,18.43
2023-05-24T03:29:58.039Z,18.44
2023-05-24T03:32:25.596Z,18.32
2023-05-24T03:34:53.408Z,18.46
2023-05-24T03:37:20.860Z,18.48
2023-05-24T03:39:48.471Z,18.49
2023-05-24T03:42:16.028Z,18.38
2023-05-24T03:44:44.093Z,18.33
2023-05-24T03:47:11.464Z,18.42
2023-05-24T03:49:39.182Z,18.44
2023-05-24T03:52:06.534Z,18.46
2023-05-24T03:54:34.116Z,18.50
2023-05-24T03:57:01.861Z,18.55
2023-05-24T03:59:31.023Z,18.55
2023-05-24T04:01:58.518Z,18.57
2023-05-24T04:04:27.111Z,18.38
2023-05-24T04:06:54.418Z,18.40
2023-05-24T04:09:23.794Z,18.35
2023-05-24T04:11:51.306Z,18.30
2023-05-24T04:14:18.907Z,18.24
2023-05-24T04:16:46.950Z,18.30
2023-05-24T04:19:14.735Z,18.31
2023-05-24T04:21:42.136Z,18.23
2023-05-24T04:24:09.799Z,18.25
2023-05-24T04:26:37.924Z,18.16
2023-05-24T04:29:05.618Z,18.01
2023-05-24T04:31:34.402Z,17.74
2023-05-24T04:34:02.340Z,17.75
2023-05-24T04:36:31.561Z,17.58
2023-05-24T04:39:03.060Z,17.48
2023-05-24T04:41:35.824Z,17.21
2023-05-24T04:44:03.584Z,17.20
2023-05-24T04:46:31.592Z,17.08
2023-05-24T04:48:59.337Z,17.23
2023-05-24T04:51:26.771Z,16.99
2023-05-24T04:53:54.652Z,17.15
2023-05-24T04:56:23.034Z,17.13
2023-05-24T04:58:50.691Z,16.61
2023-05-24T05:01:18.419Z,16.81
2023-05-24T05:03:46.467Z,16.73
2023-05-24T05:06:14.225Z,16.80
2023-05-24T05:08:41.942Z,16.96
2023-05-24T05:11:09.876Z,16.95
2023-05-24T05:13:37.520Z,16.98
2023-05-24T05:16:05.560Z,16.94
2023-05-24T05:18:34.175Z,16.77
2023-05-24T05:21:01.459Z,16.88
2023-05-24T05:23:30.259Z,16.85
2023-05-24T05:25:57.875Z,16.98
2023-05-24T05:28:25.686Z,16.23
2023-05-24T05:30:53.035Z,16.54
2023-05-24T05:33:20.727Z,16.63
2023-05-24T05:35:48.208Z,16.45
2023-05-24T05:38:15.999Z,16.42
2023-05-24T05:40:43.615Z,15.94
2023-05-24T05:43:11.406Z,16.08
2023-05-24T05:45:38.815Z,16.13
2023-05-24T05:48:06.768Z,16.12
2023-05-24T05:50:34.297Z,15.75
2023-05-24T05:53:02.002Z,15.79
2023-05-24T05:55:29.336Z,16.03
2023-05-24T05:57:57.117Z,16.12
2023-05-24T06:00:24.431Z,16.20
2023-05-24T06:02:52.232Z,16.04
2023-05-24T06:05:19.922Z,16.20
2023-05-24T06:07:47.685Z,16.15
2023-05-24T06:10:15.080Z,15.78
2023-05-24T06:12:42.863Z,15.60
2023-05-24T06:15:11.111Z,15.85
2023-05-24T06:17:38.855Z,15.93
2023-05-24T06:20:12.167Z,15.87
2023-05-24T06:22:40.051Z,15.89
2023-05-24T06:25:07.832Z,15.82
2023-05-24T06:27:35.679Z,15.68
2023-05-24T06:30:03.825Z,15.70
2023-05-24T06:32:31.501Z,15.88
2023-05-24T06:35:05.663Z,15.85
2023-05-24T06:37:33.715Z,15.94
2023-05-24T06:40:01.095Z,16.08
2023-05-24T06:42:28.676Z,16.15
2023-05-24T06:44:56.160Z,16.24
2023-05-24T06:47:23.961Z,16.25
2023-05-24T06:49:52.462Z,16.27
2023-05-24T06:52:20.126Z,16.16
2023-05-24T06:54:47.499Z,16.17
2023-05-24T06:57:15.209Z,16.22
2023-05-24T06:59:42.563Z,16.20
2023-05-24T07:02:10.786Z,16.15
2023-05-24T07:04:41.264Z,16.03
2023-05-24T07:07:13.288Z,16.06
2023-05-24T07:09:42.488Z,16.03
2023-05-24T07:12:10.536Z,16.13
2023-05-24T07:14:38.112Z,16.26
2023-05-24T07:17:06.603Z,16.45
2023-05-24T07:19:36.163Z,16.48
2023-05-24T07:22:03.804Z,16.55
2023-05-24T07:24:31.439Z,16.43
2023-05-24T07:26:59.124Z,16.46
2023-05-24T07:29:26.952Z,16.55
2023-05-24T07:31:56.669Z,16.39
2023-05-24T07:34:27.665Z,16.40
2023-05-24T07:36:55.365Z,16.60
2023-05-24T07:39:23.392Z,16.40
2023-05-24T07:41:51.317Z,16.46
2023-05-24T07:44:19.909Z,16.51
2023-05-24T07:46:47.684Z,16.49
2023-05-24T07:49:15.164Z,16.64
2023-05-24T07:51:42.919Z,16.61
2023-05-24T07:54:10.277Z,16.57
2023-05-24T07:56:37.906Z,16.68
2023-05-24T07:59:05.419Z,16.85
2023-05-24T08:01:34.581Z,16.48
2023-05-24T08:04:05.214Z,16.72
2023-05-24T08:06:33.141Z,16.42
2023-05-24T08:09:00.616Z,16.57
2023-05-24T08:11:28.386Z,16.50
2023-05-24T08:13:55.734Z,16.61
2023-05-24T08:16:25.022Z,16.58
2023-05-24T08:18:54.762Z,16.44
2023-05-24T08:21:23.780Z,16.23
2023-05-24T08:23:51.300Z,16.01
2023-05-24T08:26:21.081Z,16.02
2023-05-24T08:28:48.598Z,16.06
2023-05-24T08:31:16.527Z,16.03
2023-05-24T08:33:44.401Z,16.21
2023-05-24T08:36:12.397Z,16.43
2023-05-24T08:38:39.861Z,16.40
2023-05-24T08:41:08.608Z,16.62
2023-05-24T08:43:36.726Z,16.83
2023-05-24T08:46:06.018Z,16.77
2023-05-24T08:48:42.153Z,16.86
2023-05-24T08:51:10.413Z,17.02
2023-05-24T08:53:39.925Z,17.12
2023-05-24T08:56:10.483Z,16.92
2023-05-24T08:58:40.611Z,16.64
2023-05-24T09:01:09.207Z,16.68
2023-05-24T09:03:38.849Z,16.69
2023-05-24T09:06:12.358Z,16.72
2023-05-24T09:08:43.883Z,16.08
2023-05-24T09:11:16.131Z,15.89
2023-05-24T09:13:46.082Z,15.99
2023-05-24T09:16:15.320Z,16.18
2023-05-24T09:18:45.817Z,16.45
2023-05-24T09:21:14.155Z,16.23
2023-05-24T09:23:42.035Z,16.32
2023-05-24T09:26:11.835Z,16.26
2023-05-24T09:28:41.841Z,16.55
2023-05-24T09:31:09.671Z,16.49
2023-05-24T09:33:39.020Z,16.58
2023-05-24T09:36:07.780Z,16.97
2023-05-24T09:38:36.679Z,17.22
2023-05-24T09:41:07.320Z,17.33
2023-05-24T09:43:47.664Z,17.51
2023-05-24T09:46:21.951Z,17.47
2023-05-24T09:49:06.859Z,17.35
2023-05-24T09:51:41.235Z,17.69
2023-05-24T09:54:09.891Z,17.45
2023-05-24T09:56:40.742Z,17.77
2023-05-24T09:59:09.976Z,18.11
2023-05-24T10:01:38.352Z,17.96
2023-05-24T10:04:10.273Z,18.34
2023-05-24T10:06:43.153Z,18.73
2023-05-24T10:09:11.337Z,18.62
2023-05-24T10:11:40.028Z,18.64
2023-05-24T10:14:10.949Z,18.56
2023-05-24T10:16:39.026Z,18.60
2023-05-24T10:19:07.432Z,18.52
2023-05-24T10:21:41.512Z,18.83
2023-05-24T10:24:11.844Z,19.12
2023-05-24T10:26:42.629Z,19.30
2023-05-24T10:29:29.604Z,19.06
2023-05-24T10:31:58.456Z,18.75
2023-05-24T10:34:26.852Z,18.88
2023-05-24T10:36:55.245Z,19.05
2023-05-24T10:39:23.341Z,19.25
2023-05-24T10:41:51.127Z,19.24
2023-05-24T10:44:21.280Z,19.24
2023-05-24T10:47:09.708Z,19.17
2023-05-24T10:49:39.801Z,19.06
2023-05-24T10:52:10.271Z,18.65
2023-05-24T10:54:39.776Z,18.47
2023-05-24T10:57:08.940Z,18.56
2023-05-24T10:59:39.607Z,18.07
2023-05-24T11:02:13.108Z,18.29
2023-05-24T11:04:47.795Z,18.48
2023-05-24T11:07:17.268Z,18.71
2023-05-24T11:09:56.230Z,18.81
2023-05-24T11:12:33.081Z,18.79
2023-05-24T11:15:03.386Z,18.88
2023-05-24T11:17:31.199Z,18.83
2023-05-24T11:20:00.776Z,19.10
2023-05-24T11:22:29.130Z,19.27
2023-05-24T11:24:57.944Z,19.42
2023-05-24T11:27:26.241Z,19.40
2023-05-24T11:29:54.287Z,19.35
2023-05-24T11:32:24.175Z,19.72
2023-05-24T11:34:51.929Z,19.74
2023-05-24T11:37:26.268Z,19.76
2023-05-24T11:39:59.234Z,19.79
2023-05-24T11:42:29.586Z,19.37
2023-05-24T11:44:57.099Z,19.52
2023-05-24T11:47:25.114Z,19.54
2023-05-24T11:49:52.761Z,19.24
2023-05-24T11:52:21.408Z,19.19
2023-05-24T11:54:50.887Z,18.74
2023-05-24T11:57:30.769Z,19.00
2023-05-24T11:59:58.659Z,18.86
2023-05-24T12:02:26.290Z,18.89
2023-05-24T12:04:54.280Z,18.95
2023-05-24T12:07:24.153Z,18.53
2023-05-24T12:09:51.538Z,19.16
2023-05-24T12:12:24.339Z,19.43
2023-05-24T12:14:56.895Z,19.50
2023-05-24T12:17:24.621Z,19.69
2023-05-24T12:19:52.234Z,19.75
2023-05-24T12:22:19.958Z,19.80
2023-05-24T12:24:52.287Z,19.69
2023-05-24T12:27:19.846Z,19.72
2023-05-24T12:29:49.076Z,19.69
2023-05-24T12:32:17.938Z,19.66
2023-05-24T12:34:45.575Z,19.66
2023-05-24T12:37:15.167Z,19.50
2023-05-24T12:39:44.485Z,19.41
2023-05-24T12:42:15.582Z,19.23
2023-05-24T12:44:43.024Z,18.87
2023-05-24T12:47:12.316Z,19.00
2023-05-24T12:49:39.696Z,19.20
2023-05-24T12:52:07.534Z,19.26
2023-05-24T12:54:35.222Z,19.21
2023-05-24T12:57:03.778Z,19.14
2023-05-24T12:59:31.531Z,19.36
2023-05-24T13:01:59.241Z,19.37
2023-05-24T13:04:27.482Z,19.36
2023-05-24T13:06:55.906Z,19.16
2023-05-24T13:09:23.905Z,19.14
2023-05-24T13:11:52.809Z,19.03
2023-05-24T13:14:20.601Z,19.38
2023-05-24T13:16:49.436Z,19.37
2023-05-24T13:19:17.530Z,18.97
2023-05-24T13:21:45.606Z,19.08
2023-05-24T13:24:16.681Z,19.40
2023-05-24T13:26:45.589Z,19.67
2023-05-24T13:31:45.208Z,19.81
2023-05-24T13:34:12.966Z,19.80
2023-05-24T13:36:40.796Z,19.71
2023-05-24T13:41:42.596Z,19.49
2023-05-24T13:44:10.790Z,19.32
2023-05-24T13:46:39.537Z,19.38
2023-05-24T13:49:09.425Z,18.92
2023-05-24T13:51:38.590Z,18.61
2023-05-24T13:54:07.491Z,17.95
2023-05-24T13:56:36.702Z,17.42
2023-05-24T13:59:05.420Z,17.82
2023-05-24T14:01:35.984Z,18.01
2023-05-24T14:04:05.157Z,17.96
2023-05-24T14:06:34.309Z,18.01
2023-05-24T14:09:01.831Z,17.97
2023-05-24T14:11:31.712Z,17.81
2023-05-24T14:16:30.455Z,17.93
2023-05-24T14:18:58.392Z,17.60
2023-05-24T14:21:27.193Z,17.62
2023-05-24T14:23:54.894Z,17.65
2023-05-24T14:26:23.799Z,17.48
2023-05-24T14:28:54.421Z,17.12
2023-05-24T14:31:24.760Z,17.53
2023-05-24T14:33:52.188Z,17.35
2023-05-24T14:36:19.853Z,17.09
2023-05-24T14:38:47.215Z,17.36
2023-05-24T14:41:15.595Z,17.52
2023-05-24T14:43:42.979Z,17.54
2023-05-24T14:46:10.681Z,17.29
2023-05-24T14:48:37.999Z,17.54
2023-05-24T14:51:05.833Z,17.55
2023-05-24T14:53:33.201Z,17.52
2023-05-24T14:56:00.794Z,17.55
2023-05-24T14:58:28.249Z,17.55
2023-05-24T15:00:56.088Z,17.67
2023-05-24T15:03:23.870Z,17.73
2023-05-24T15:05:52.500Z,17.79
2023-05-24T15:08:20.004Z,17.78
2023-05-24T15:10:48.033Z,17.97
2023-05-24T15:13:15.567Z,17.89
2023-05-24T15:15:43.397Z,18.02
2023-05-24T15:18:10.829Z,18.03
2023-05-24T15:20:38.502Z,17.77
2023-05-24T15:23:06.427Z,18.02
2023-05-24T15:25:34.172Z,17.94
2023-05-24T15:28:01.675Z,18.01
2023-05-24T15:30:29.767Z,18.07
2023-05-24T15:32:57.297Z,18.06
2023-05-24T15:35:24.958Z,18.09
2023-05-24T15:37:52.256Z,18.03
2023-05-24T15:40:23.977Z,18.04
2023-05-24T15:42:52.964Z,17.96
2023-05-24T15:45:21.415Z,18.02
2023-05-24T15:47:48.865Z,18.13
2023-05-24T15:50:21.745Z,18.15
2023-05-24T15:52:53.264Z,18.07
2023-05-24T15:55:21.072Z,18.08
2023-05-24T15:57:48.535Z,18.09
2023-05-24T16:00:16.969Z,18.02
2023-05-24T16:02:44.363Z,17.97
2023-05-24T16:05:12.133Z,17.93
2023-05-24T16:07:39.482Z,17.97
2023-05-24T16:10:07.810Z,18.04
2023-05-24T16:12:35.210Z,18.07
2023-05-24T16:15:03.655Z,18.12
2023-05-24T16:17:31.319Z,18.21
2023-05-24T16:19:59.674Z,18.22
2023-05-24T16:22:27.014Z,18.16
2023-05-24T16:24:54.733Z,18.23
2023-05-24T16:27:22.396Z,18.17
2023-05-24T16:29:50.068Z,18.17
2023-05-24T16:32:18.368Z,18.17
2023-05-24T16:37:19.615Z,18.00
2023-05-24T16:39:47.241Z,17.99
2023-05-24T16:42:14.502Z,17.99
2023-05-24T16:44:42.132Z,17.96
2023-05-24T16:47:09.518Z,17.92
2023-05-24T16:49:37.159Z,17.65
2023-05-24T16:52:04.672Z,17.56
2023-05-24T16:54:32.363Z,17.55
2023-05-24T16:56:59.713Z,17.53
2023-05-24T16:59:27.529Z,17.49
2023-05-24T17:01:54.941Z,17.46
2023-05-24T17:04:22.592Z,17.38
2023-05-24T17:06:49.858Z,17.40
2023-05-24T17:09:17.781Z,17.39
2023-05-24T17:11:45.083Z,17.41
2023-05-24T17:14:12.690Z,17.21
2023-05-24T17:16:40.048Z,17.10
2023-05-24T17:19:07.984Z,17.22
2023-05-24T17:21:36.970Z,17.19
2023-05-24T17:24:04.716Z,17.24
2023-05-24T17:26:32.111Z,17.25
2023-05-24T17:28:59.788Z,17.11
2023-05-24T17:31:27.163Z,17.13
2023-05-24T17:33:55.117Z,17.14
2023-05-24T17:36:22.447Z,17.27
2023-05-24T17:38:50.107Z,17.27
2023-05-24T17:41:17.523Z,17.24
2023-05-24T17:43:45.120Z,17.18
2023-05-24T17:46:13.624Z,17.24
2023-05-24T17:48:42.885Z,17.29
2023-05-24T17:51:11.072Z,17.25
2023-05-24T17:53:41.129Z,17.20
2023-05-24T17:56:09.040Z,17.22
2023-05-24T17:58:37.548Z,17.21
2023-05-24T18:01:07.502Z,17.21
2023-05-24T18:03:37.311Z,17.30
2023-05-24T18:06:07.121Z,17.19
2023-05-24T18:08:38.348Z,17.18
2023-05-24T18:11:09.662Z,17.14
2023-05-24T18:13:39.256Z,17.16
2023-05-24T18:16:08.365Z,17.14
2023-05-24T18:18:37.845Z,16.93
2023-05-24T18:21:06.219Z,17.02
2023-05-24T18:23:37.677Z,17.13
2023-05-24T18:26:10.620Z,17.11
2023-05-24T18:28:39.593Z,17.10
2023-05-24T18:31:10.863Z,17.12
2023-05-24T18:33:39.180Z,17.14
2023-05-24T18:36:07.155Z,17.09
2023-05-24T18:38:36.720Z,17.07
2023-05-24T18:41:06.287Z,17.03
2023-05-24T18:43:34.352Z,17.05
2023-05-24T18:46:02.102Z,16.99
2023-05-24T18:48:29.810Z,16.96
2023-05-24T18:50:57.203Z,16.97
2023-05-24T18:53:25.999Z,16.94
2023-05-24T18:55:53.347Z,16.93
2023-05-24T18:58:21.094Z,16.91
2023-05-24T19:00:48.451Z,16.97
2023-05-24T19:03:16.677Z,16.94
2023-05-24T19:05:44.416Z,16.96
2023-05-24T19:08:12.281Z,16.97
2023-05-24T19:10:39.665Z,16.95
2023-05-24T19:13:07.616Z,16.88
2023-05-24T19:15:36.802Z,16.90
2023-05-24T19:18:04.854Z,16.94
2023-05-24T19:20:32.153Z,16.92
2023-05-24T19:22:59.822Z,16.89
2023-05-24T19:25:27.185Z,16.91
2023-05-24T19:27:59.716Z,16.89
2023-05-24T19:30:28.051Z,16.86
2023-05-24T19:32:55.858Z,16.85
2023-05-24T19:35:23.322Z,16.88
2023-05-24T19:37:52.322Z,16.80
2023-05-24T19:40:20.637Z,16.70
2023-05-24T19:42:48.268Z,16.72
2023-05-24T19:45:16.467Z,16.69
2023-05-24T19:47:45.380Z,16.65
2023-05-24T19:50:12.797Z,16.63
2023-05-24T19:52:40.498Z,16.65
2023-05-24T19:55:08.607Z,16.68
2023-05-24T19:57:36.360Z,16.65
2023-05-24T20:00:05.124Z,16.64
2023-05-24T20:02:34.870Z,16.62
2023-05-24T20:05:04.348Z,16.62
2023-05-24T20:07:32.061Z,16.61
2023-05-24T20:09:59.450Z,16.59
2023-05-24T20:12:30.912Z,16.65
2023-05-24T20:14:58.255Z,16.62
2023-05-24T20:17:25.918Z,16.58
2023-05-24T20:19:53.277Z,16.54
2023-05-24T20:22:21.250Z,16.62
2023-05-24T20:24:48.614Z,16.57
2023-05-24T20:27:16.425Z,16.57
2023-05-24T20:29:43.816Z,16.57
2023-05-24T20:32:12.091Z,16.59
2023-05-24T20:34:39.599Z,16.56
2023-05-24T20:37:07.266Z,16.58
2023-05-24T20:39:34.718Z,16.56
2023-05-24T20:42:02.357Z,16.57
2023-05-24T20:44:29.707Z,16.58
2023-05-24T20:46:57.296Z,16.56
2023-05-24T20:49:24.635Z,16.55
2023-05-24T20:51:52.234Z,16.56
2023-05-24T20:54:19.574Z,16.62
2023-05-24T20:56:47.164Z,16.59
2023-05-24T20:59:14.584Z,16.58
2023-05-24T21:01:42.503Z,16.58
2023-05-24T21:04:10.039Z,16.58
2023-05-24T21:06:39.620Z,16.57
2023-05-24T21:09:06.949Z,16.58
2023-05-24T21:11:34.743Z,16.59
2023-05-24T21:14:02.198Z,16.61
2023-05-24T21:16:30.106Z,16.60
2023-05-24T21:19:01.081Z,16.55
2023-05-24T21:21:28.840Z,16.51
2023-05-24T21:23:56.757Z,16.54
2023-05-24T21:26:24.505Z,16.53
2023-05-24T21:28:52.046Z,16.54
2023-05-24T21:31:20.963Z,16.58
2023-05-24T21:33:48.380Z,16.58
2023-05-24T21:36:16.227Z,16.58
2023-05-24T21:38:43.716Z,16.58
2023-05-24T21:41:11.301Z,16.53
2023-05-24T21:43:42.908Z,16.50
2023-05-24T21:46:10.726Z,16.52
2023-05-24T21:48:38.107Z,16.49
2023-05-24T21:51:06.051Z,16.42
2023-05-24T21:53:35.070Z,16.42
2023-05-24T21:56:03.033Z,16.40
2023-05-24T21:58:30.495Z,16.39
2023-05-24T22:00:58.238Z,16.37
2023-05-24T22:03:25.989Z,16.37
2023-05-24T22:05:53.731Z,16.28
2023-05-24T22:08:21.259Z,16.35
2023-05-24T22:10:48.834Z,16.29
2023-05-24T22:13:16.257Z,16.30
2023-05-24T22:15:44.200Z,16.25
2023-05-24T22:18:12.807Z,16.26
2023-05-24T22:20:40.455Z,16.22
2023-05-24T22:23:07.757Z,16.18
2023-05-24T22:25:35.338Z,16.14
2023-05-24T22:28:02.656Z,16.15
2023-05-24T22:30:32.120Z,16.18
2023-05-24T22:32:59.474Z,16.17
2023-05-24T22:35:27.237Z,16.17
2023-05-24T22:37:54.658Z,16.20
2023-05-24T22:40:22.419Z,16.23
2023-05-24T22:42:49.747Z,16.23
2023-05-24T22:45:18.617Z,16.18
2023-05-24T22:47:49.253Z,16.20
2023-05-24T22:50:17.034Z,16.18
2023-05-24T22:52:46.737Z,16.22
2023-05-24T22:55:14.294Z,16.18
2023-05-24T22:57:41.737Z,16.11
2023-05-24T23:00:10.221Z,16.12
2023-05-24T23:02:38.098Z,16.10
2023-05-24T23:05:06.764Z,16.07
2023-05-24T23:07:34.076Z,16.07
2023-05-24T23:10:01.702Z,16.09
2023-05-24T23:12:29.280Z,16.10
2023-05-24T23:14:58.445Z,16.15
2023-05-24T23:17:26.480Z,16.14
2023-05-24T23:19:54.301Z,16.11
2023-05-24T23:22:23.718Z,16.07
2023-05-24T23:24:51.695Z,16.08
2023-05-24T23:27:19.285Z,16.07
2023-05-24T23:29:46.928Z,16.03
2023-05-24T23:32:14.266Z,16.00
2023-05-24T23:34:41.889Z,16.00
2023-05-24T23:37:09.245Z,15.98
2023-05-24T23:39:36.949Z,16.02
2023-05-24T23:42:04.941Z,15.99
2023-05-24T23:44:32.808Z,15.98
2023-05-24T23:47:00.169Z,15.93
2023-05-24T23:49:27.821Z,15.94
2023-05-24T23:51:55.169Z,15.88
2023-05-24T23:54:22.750Z,15.85
2023-05-24T23:56:50.826Z,15.90
2023-05-24T23:59:18.429Z,15.93
